Shishmaref, AK

6:32 PM AKDT on October 01, 2014 (GMT -0800)
New Shishmaref | Change Station
CLOSE
Current Station
Airport
Location: Shishmaref,
Elevation: 13 ft
Nearby Weather Stations

Elev 13 ft 66.25 °N, 166.09 °W | Updated 16 minutes ago

Overcast
Overcast
43 °F
Feels Like 37 °F
N
10
Wind Variable Wind from NW

Today
High -- | Low -- °F
--% Chance of Precip.
Yesterday
High -- | Low -- °F
Precip. -- in
9:16 AM 8:29 PM
First Quarter, 53% visible
Pressure 30.24 in
Visibility 10.0 miles
Clouds Few 900 ft
Overcast 7000 ft
Windchill 37 °F
Dew Point 39 °F
Humidity 87%
Rainfall 0.00 in
Snow Depth 77 in , 0 in , 0 in
UV 0 out of 12
Pollen Not available.
Air Quality Not available.
Flu Activity Not available.
METAR PASH 020216Z AUTO 31009KT 10SM FEW009 OVC070 06/04 A3024 RMK AO1

More Conditions Fewer Conditions

Pressure 30.24 in
Visibility 10.0 miles
Clouds Few 900 ft
Overcast 7000 ft
Windchill 37 °F
Dew Point 39 °F
Humidity 87%
Rainfall 0.00 in
Snow Depth 77 in , 0 in , 0 in
UV 0 out of 12
Pollen Not available.
Air Quality Not available.
Flu Activity Not available.
METAR PASH 020216Z AUTO 31009KT 10SM FEW009 OVC070 06/04 A3024 RMK AO1

More Conditions Fewer Conditions

10-Day Weather Forecast

Almanac

Astronomy

Oct. 01, 2014 Rise Set
Actual Time 9:16 AM AKDT 8:29 PM AKDT
Civil Twilight 8:24 AM AKDT 9:21 PM AKDT
Nautical Twilight 7:23 AM AKDT 10:22 PM AKDT
Astronomical Twilight 6:15 AM AKDT 11:28 PM AKDT
Moon 6:21 PM AKDT (10/1) No Moon Set
Length of Visible Light 12h 56m
Length of Day
11h 13m
Tomorrow will be 7m 5s shorter.
First Quarter, 53% of the Moon is Illuminated
Today
First Quarter
Oct 8
Full
Oct 15
Last Quarter
Oct 23
New
Oct 30
First Quarter

Today's Extremes

State Highs State Lows

Community

WunderPhotos

Upload Photos

1,758,147 photos uploaded!

WunderBlogs® & News

Nearby

Snow Depth

Station Depth Elevation
Eagle Summit 77 in 3650 ft
Upper Tsaina River 0 in 1750 ft
Pargon Creek 0 in 300 ft
Indian Pass 1 in 2300 ft
Little Chena Ridge 2 in 2000 ft

Earthquake Activity

City Distance Mag. Time & Date
No recent earthquake activity has been reported nearby.
Minimum magnitude displayed is 2.5.

Coastal Water Temperatures

Place Temperature
No Stations Reporting

Nearby Weather Stations